Map

Track Data

SID SEASON NUMBER BASIN SUBBASIN NAME ISO_TIME NATURE LAT LON WMO_WIND WMO_PRES WMO_AGENCY TRACK_TYPE DIST2LAND LANDFALL IFLAG USA_AGENCY USA_ATCF_ID USA_LAT USA_LON USA_RECORD USA_STATUS USA_WIND USA_PRES USA_SSHS USA_R34_NE USA_R34_SE USA_R34_SW USA_R34_NW USA_R50_NE USA_R50_SE USA_R50_SW USA_R50_NW USA_R64_NE USA_R64_SE USA_R64_SW USA_R64_NW USA_POCI USA_ROCI USA_RMW USA_EYE TOKYO_LAT TOKYO_LON TOKYO_GRADE TOKYO_WIND TOKYO_PRES TOKYO_R50_DIR TOKYO_R50_LONG TOKYO_R50_SHORT TOKYO_R30_DIR TOKYO_R30_LONG TOKYO_R30_SHORT TOKYO_LAND CMA_LAT CMA_LON CMA_CAT CMA_WIND CMA_PRES HKO_LAT HKO_LON HKO_CAT HKO_WIND HKO_PRES NEWDELHI_LAT NEWDELHI_LON NEWDELHI_GRADE NEWDELHI_WIND NEWDELHI_PRES NEWDELHI_CI NEWDELHI_DP NEWDELHI_POCI REUNION_LAT REUNION_LON REUNION_TYPE REUNION_WIND REUNION_PRES REUNION_TNUM REUNION_CI REUNION_RMW REUNION_R34_NE REUNION_R34_SE REUNION_R34_SW REUNION_R34_NW REUNION_R50_NE REUNION_R50_SE REUNION_R50_SW REUNION_R50_NW REUNION_R64_NE REUNION_R64_SE REUNION_R64_SW REUNION_R64_NW BOM_LAT BOM_LON BOM_TYPE BOM_WIND BOM_PRES BOM_TNUM BOM_CI BOM_RMW BOM_R34_NE BOM_R34_SE BOM_R34_SW BOM_R34_NW BOM_R50_NE BOM_R50_SE BOM_R50_SW BOM_R50_NW BOM_R64_NE BOM_R64_SE BOM_R64_SW BOM_R64_NW BOM_ROCI BOM_POCI BOM_EYE BOM_POS_METHOD BOM_PRES_METHOD NADI_LAT NADI_LON NADI_CAT NADI_WIND NADI_PRES WELLINGTON_LAT WELLINGTON_LON WELLINGTON_WIND WELLINGTON_PRES DS824_LAT DS824_LON DS824_STAGE DS824_WIND DS824_PRES TD9636_LAT TD9636_LON TD9636_STAGE TD9636_WIND TD9636_PRES TD9635_LAT TD9635_LON TD9635_WIND TD9635_PRES TD9635_ROCI NEUMANN_LAT NEUMANN_LON NEUMANN_CLASS NEUMANN_WIND NEUMANN_PRES MLC_LAT MLC_LON MLC_CLASS MLC_WIND MLC_PRES USA_GUST BOM_GUST BOM_GUST_PER REUNION_GUST REUNION_GUST_PER USA_SEAHGT USA_SEARAD_NE USA_SEARAD_SE USA_SEARAD_SW USA_SEARAD_NW STORM_SPEED STORM_DIR
1930004S14149 1930 1 SP EA NOT_NAMED 1930-01-03 23:00:00 NR -14.0000 149.200 bom main 385 385 ______O___O___ -1 -13.9000 149.100 -14.1000 149.300 7 16 277
1930004S14149 1930 1 SP EA NOT_NAMED 1930-01-04 00:00:00 TS -13.9674 148.932 main 395 335 ______P__OP___ -1 -13.8594 148.838 -13.9000 148.800 TC -14.1092 149.092 7 15 276
1930004S14149 1930 1 SP EA NOT_NAMED 1930-01-04 03:00:00 TS -13.9062 148.207 main 335 267 ______P__PP___ -1 -13.7499 148.055 -13.7913 148.052 TC -14.1392 148.463 7 14 274
1930004S14149 1930 1 SP EA NOT_NAMED 1930-01-04 06:00:00 TS -13.8776 147.477 main 267 203 ______P__PP___ -1 -13.6891 147.277 -13.7252 147.305 TC -14.1805 147.806 7 14 270
1930004S14149 1930 1 SP EA NOT_NAMED 1930-01-04 09:00:00 TS -13.9014 146.722 main 194 155 ______P__PP___ -1 -13.7153 146.507 -13.7465 146.554 TC -14.2426 147.104 7 15 265
1930004S14149 1930 1 SP EA NOT_NAMED 1930-01-04 11:00:00 TS -13.9771 146.217 bom main 147 132 ______O__PO___ -1 -13.8000 146.000 -13.8314 146.052 TC -14.3000 146.600 7 15 260
1930004S14149 1930 1 SP EA NOT_NAMED 1930-01-04 12:00:00 TS -14.0336 145.961 main 132 55 ______P__OP___ -1 -13.8663 145.749 -13.9000 145.800 TC -14.3344 146.336 7 16 253
1930004S14149 1930 1 SP EA NOT_NAMED 1930-01-04 15:00:00 TS -14.2727 145.198 main 55 15 ______P__PP___ -1 -14.1518 145.028 -14.2076 145.055 TC -14.4588 145.512 7 15 250
1930004S14149 1930 1 SP EA NOT_NAMED 1930-01-04 17:00:00 TS -14.4740 144.721 bom main 10 0 ______O__PP___ -1 -14.4000 144.600 -14.4654 144.602 TC -14.5565 144.961 7 15 245
1930004S14149 1930 1 SP EA NOT_NAMED 1930-01-04 18:00:00 TS -14.5822 144.498 main 0 0 ______P__OP___ -1 -14.5376 144.404 -14.6000 144.400 TC -14.6091 144.691 7 14 240
1930004S14149 1930 1 SP EA NOT_NAMED 1930-01-04 21:00:00 TS -14.9277 143.908 main 0 0 ______P__PP___ -1 -14.9982 143.892 -15.0062 143.896 TC -14.7789 143.936 7 13 237
1930004S14149 1930 1 SP EA NOT_NAMED 1930-01-04 23:00:00 TS -15.1582 143.575 bom main 0 0 ______O__PO___ -1 -15.3000 143.600 -15.2746 143.624 TC -14.9000 143.500 7 11 234
1930004S14149 1930 1 SP EA NOT_NAMED 1930-01-05 00:00:00 TS -15.2626 143.433 main 0 0 ______P__OP___ -1 -15.4261 143.475 -15.4000 143.500 TC -14.9617 143.324 7 9 232
1930004S14149 1930 1 SP EA NOT_NAMED 1930-01-05 03:00:00 TS -15.5416 143.065 main 0 0 ______P__PP___ -1 -15.7508 143.184 -15.7143 143.127 TC -15.1598 142.884 7 8 231
1930004S14149 1930 1 SP EA NOT_NAMED 1930-01-05 06:00:00 TS -15.7775 142.778 main 0 0 ______P__PP___ -1 -16.0027 142.987 -15.9624 142.811 TC -15.3674 142.535 7 7 230
1930004S14149 1930 1 SP EA NOT_NAMED 1930-01-05 09:00:00 TS -15.9718 142.534 main 0 0 ______P__PP___ -1 -16.1914 142.844 -16.1522 142.539 TC -15.5719 142.219 7 6 232
1930004S14149 1930 1 SP EA NOT_NAMED 1930-01-05 11:00:00 TS -16.0789 142.377 main 0 0 ______P__PO___ -1 -16.2865 142.755 -16.2503 142.376 TC -15.7000 142.000 7 6 236
1930004S14149 1930 1 SP EA NOT_NAMED 1930-01-05 12:00:00 TS -16.1272 142.290 main 0 0 ______P__PP___ -1 -16.3259 142.709 -16.2917 142.299 TC -15.7641 141.861 7 6 244
1930004S14149 1930 1 SP EA NOT_NAMED 1930-01-05 15:00:00 TS -16.2507 142.017 main 0 0 ______P__PP___ -1 -16.4153 142.541 -16.3885 142.078 TC -15.9484 141.433 7 6 248
1930004S14149 1930 1 SP EA NOT_NAMED 1930-01-05 18:00:00 TS -16.3433 141.719 main 0 0 ______P__PP___ -1 -16.4685 142.296 -16.4504 141.862 TC -16.1111 140.998 7 7 257
1930004S14149 1930 1 SP EA NOT_NAMED 1930-01-05 21:00:00 TS -16.3991 141.358 main 0 0 ______P__PP___ -1 -16.4942 141.931 -16.4850 141.641 TC -16.2395 140.572 7 8 263
1930004S14149 1930 1 SP EA NOT_NAMED 1930-01-05 23:00:00 TS -16.4193 141.057 bom main 21 21 ______O__PO___ -1 -16.5000 141.600 -16.4967 141.483 TC -16.3000 140.300 7 10 267
1930004S14149 1930 1 SP EA NOT_NAMED 1930-01-06 00:00:00 TS -16.4233 140.857 main 42 42 ______P__OP___ -1 -16.5026 141.402 -16.5000 141.400 TC -16.3248 140.177 7 12 270
1930004S14149 1930 1 SP EA NOT_NAMED 1930-01-06 01:00:00 NR -16.4222 140.629 bom main 72 72 ______O__PP___ -1 -16.5000 141.200 -16.5019 141.313 TC -16.3444 140.057 7 10 270
1930004S14149 1930 1 SP EA NOT_NAMED 1930-01-06 03:00:00 NR -16.4235 140.326 main 100 100 ______P__PP___ -1 -16.4785 140.826 -16.5016 141.129 TC -16.3685 139.826 7 8 273
1930004S14149 1930 1 SP EA NOT_NAMED 1930-01-06 06:00:00 NR -16.3880 139.903 main 100 84 ______P__PP___ -1 -16.4051 140.319 -16.4918 140.829 TC -16.3709 139.487 7 8 278
1930004S14149 1930 1 SP EA NOT_NAMED 1930-01-06 09:00:00 NR -16.3157 139.504 main 84 74 ______P__PP___ -1 -16.2931 139.865 -16.4709 140.499 TC -16.3382 139.143 7 8 282
1930004S14149 1930 1 SP EA NOT_NAMED 1930-01-06 11:00:00 NR -16.2516 139.242 main 70 70 ______P__PO___ -1 -16.2032 139.585 -16.4513 140.266 TC -16.3000 138.900 7 8 285
1930004S14149 1930 1 SP EA NOT_NAMED 1930-01-06 12:00:00 NR -16.2163 139.106 main 79 74 ______P__PP___ -1 -16.1550 139.450 -16.4398 140.144 TC -16.2777 138.762 7 8 287
1930004S14149 1930 1 SP EA NOT_NAMED 1930-01-06 15:00:00 NR -16.0952 138.696 main 79 67 ______P__PP___ -1 -16.0028 139.062 -16.3989 139.765 TC -16.1877 138.329 7 8 288
1930004S14149 1930 1 SP EA NOT_NAMED 1930-01-06 18:00:00 NR -15.9630 138.289 main 67 46 ______P__PP___ -1 -15.8485 138.689 -16.3490 139.364 TC -16.0775 137.888 7 8 289
1930004S14149 1930 1 SP EA NOT_NAMED 1930-01-06 21:00:00 NR -15.8350 137.890 main 49 44 ______P__PP___ -1 -15.7042 138.318 -16.2907 138.943 TC -15.9659 137.462 7 8 288
1930004S14149 1930 1 SP EA NOT_NAMED 1930-01-06 23:00:00 NR -15.7597 137.632 main 39 39 ______P__PO___ -1 -15.6193 138.065 -16.2474 138.652 TC -15.9000 137.200 7 8 287
1930004S14149 1930 1 SP EA NOT_NAMED 1930-01-06 23:30:00 NR -15.7425 137.571 bom main 49 46 ______O__PP___ -1 -15.6000 138.000 -16.2361 138.578 TC -15.8850 137.142 7 7 286
1930004S14149 1930 1 SP EA NOT_NAMED 1930-01-07 00:00:00 NR -15.7262 137.508 main 46 33 ______P__PP___ -1 -15.5820 137.930 -16.2246 138.504 TC -15.8703 137.086 7 7 285
1930004S14149 1930 1 SP EA NOT_NAMED 1930-01-07 03:00:00 NR -15.6347 137.140 main 44 24 ______P__PP___ -1 -15.4796 137.508 -16.1513 138.049 TC -15.7898 136.771 7 7 283
1930004S14149 1930 1 SP EA NOT_NAMED 1930-01-07 06:00:00 NR -15.5611 136.785 main 24 22 ______P__PP___ -1 -15.3926 137.087 -16.0717 137.580 TC -15.7297 136.483 7 7 280
1930004S14149 1930 1 SP EA NOT_NAMED 1930-01-07 09:00:00 NR -15.5146 136.431 main 15 0 ______P__PP___ -1 -15.3300 136.665 -15.9863 137.100 TC -15.6992 136.198 7 7 276
1930004S14149 1930 1 SP EA NOT_NAMED 1930-01-07 11:00:00 NR -15.5032 136.191 main 0 0 ______P__PO___ -1 -15.3063 136.383 -15.9266 136.775 TC -15.7000 136.000 7 7 272
1930004S14149 1930 1 SP EA NOT_NAMED 1930-01-07 12:00:00 NR -15.5021 136.065 main 0 0 ______P__PP___ -1 -15.3008 136.242 -15.8960 136.611 TC -15.7033 135.888 7 7 269
1930004S14149 1930 1 SP EA NOT_NAMED 1930-01-07 13:00:00 NR -15.5055 135.936 bom main 0 0 ______O__PP___ -1 -15.3000 136.100 -15.8649 136.446 TC -15.7110 135.773 7 8 267
1930004S14149 1930 1 SP EA NOT_NAMED 1930-01-07 15:00:00 NR -15.5210 135.670 main 0 0 ______P__PP___ -1 -15.3031 135.802 -15.8014 136.114 TC -15.7388 135.538 7 8 264
1930004S14149 1930 1 SP EA NOT_NAMED 1930-01-07 18:00:00 NR -15.5747 135.268 main 0 0 ______P__PP___ -1 -15.3394 135.355 -15.7034 135.612 TC -15.8101 135.181 7 8 259
1930004S14149 1930 1 SI WA NOT_NAMED 1930-01-07 21:00:00 NR -15.6632 134.877 main 0 0 ______P__PP___ -1 -15.4123 134.928 -15.6026 135.106 TC -15.9141 134.827 7 8 255
1930004S14149 1930 1 SI WA NOT_NAMED 1930-01-07 23:00:00 NR -15.7403 134.631 main 0 0 ______P__PO___ -1 -15.4805 134.663 -15.5344 134.769 TC -16.0000 134.600 7 7 252
1930004S14149 1930 1 SI WA NOT_NAMED 1930-01-07 23:30:00 NR -15.7604 134.573 992 bom main 0 0 ______O__PP___ -1 -15.5000 134.600 992 4 -15.5172 134.684 TC -16.0207 134.545 7 6 265
1930004S14149 1930 1 SI WA NOT_NAMED 1930-01-08 00:00:00 TS -15.7501 134.524 main 0 0 ______P__OP___ -1 -15.5204 134.539 -15.5000 134.600 TC 45 992 -16.0424 134.491 7 7 246
1930004S14149 1930 1 SI WA NOT_NAMED 1930-01-08 03:00:00 NR -15.9262 134.187 main 0 0 ______P___P___ -1 -15.6616 134.202 TC -16.1907 134.173 7 7 240
1930004S14149 1930 1 SI WA NOT_NAMED 1930-01-08 06:00:00 NR -16.0986 133.891 main 0 0 ______P___P___ -1 -15.8315 133.911 TC -16.3658 133.871 7 7 236
1930004S14149 1930 1 SI WA NOT_NAMED 1930-01-08 09:00:00 NR -16.2933 133.621 main 0 0 ______P___P___ -1 -16.0252 133.658 TC -16.5613 133.583 7 6 232
1930004S14149 1930 1 SI WA NOT_NAMED 1930-01-08 11:00:00 NR -16.4326 133.453 main 0 0 ______P___O___ -1 -16.1652 133.507 TC -16.7000 133.400 7 6 229
1930004S14149 1930 1 SI WA NOT_NAMED 1930-01-08 12:00:00 NR -16.5037 133.370 main 0 0 ______P___P___ -1 -16.2379 133.436 TC -16.7695 133.305 7 7 224
1930004S14149 1930 1 SI WA NOT_NAMED 1930-01-08 15:00:00 NR -16.7646 133.118 main 0 0 ______P___P___ -1 -16.4645 133.236 TC -16.9896 133.029 7 7 222
1930004S14149 1930 1 SI WA NOT_NAMED 1930-01-08 18:00:00 NR -17.0466 132.864 main 0 0 ______P___P___ -1 -16.7003 133.050 TC -17.2197 132.772 7 8 220
1930004S14149 1930 1 SI WA NOT_NAMED 1930-01-08 20:30:00 NR -17.3099 132.640 bom main 0 0 ______O___P___ -1 -16.9000 132.900 TC -17.4123 132.575 7 10 218
1930004S14149 1930 1 SI WA NOT_NAMED 1930-01-08 21:00:00 NR -17.4505 132.539 main 0 0 __________P___ -1 TC -17.4505 132.539 7 9 219
1930004S14149 1930 1 SI WA NOT_NAMED 1930-01-08 23:00:00 NR -17.6000 132.400 main 0 0 __________O___ -1 TC -17.6000 132.400 7 6 222
1930004S14149 1930 1 SI WA NOT_NAMED 1930-01-09 00:00:00 NR -17.6663 132.336 main 0 0 __________P___ -1 TC -17.6663 132.336 7 5 221
1930004S14149 1930 1 SI WA NOT_NAMED 1930-01-09 03:00:00 NR -17.8581 132.168 main 0 0 __________P___ -1 TC -17.8581 132.168 7 5 218
1930004S14149 1930 1 SI WA NOT_NAMED 1930-01-09 06:00:00 NR -18.0492 132.023 main 0 0 __________P___ -1 TC -18.0492 132.023 7 5 214
1930004S14149 1930 1 SI WA NOT_NAMED 1930-01-09 09:00:00 NR -18.2521 131.889 main 0 0 __________P___ -1 TC -18.2521 131.889 7 5 211
1930004S14149 1930 1 SI WA NOT_NAMED 1930-01-09 11:00:00 NR -18.4000 131.800 main 0 0 __________O___ -1 TC -18.4000 131.800 7 5 210
1930004S14149 1930 1 SI WA NOT_NAMED 1930-01-09 12:00:00 NR -18.4790 131.754 main 0 0 __________P___ -1 TC -18.4790 131.754 7 6 209
1930004S14149 1930 1 SI WA NOT_NAMED 1930-01-09 15:00:00 NR -18.7347 131.610 main 0 0 __________P___ -1 TC -18.7347 131.610 7 6 208
1930004S14149 1930 1 SI WA NOT_NAMED 1930-01-09 18:00:00 NR -19.0120 131.460 main 0 0 __________P___ -1 TC -19.0120 131.460 7 6 207
1930004S14149 1930 1 SI WA NOT_NAMED 1930-01-09 21:00:00 NR -19.3027 131.305 main 0 0 __________P___ -1 TC -19.3027 131.305 7 7 207
1930004S14149 1930 1 SI WA NOT_NAMED 1930-01-09 23:00:00 NR -19.5000 131.200 main 0 __________O___ -1 TC -19.5000 131.200 7 7 206

Digital Typhoon Data and Search

About IBTrACS Database

This database is a web-friendly format of International Best Track Archive for Climate Stewardship (IBTrACS), a global best track data archive curated by NOAA dating back to 1842.

Updated: 2021-12-08